createdAt,value
2019-02-22T00:00:34.789Z,98.10
2019-02-22T00:01:34.785Z,106.70
2019-02-22T00:02:34.779Z,154.30
2019-02-22T00:03:34.752Z,658.70
2019-02-22T00:04:34.743Z,265.80
2019-02-22T00:05:34.729Z,124.80
2019-02-22T00:06:34.717Z,229.60
2019-02-22T00:07:34.756Z,591.90
2019-02-22T00:08:34.696Z,230.40
2019-02-22T00:09:34.684Z,174.90
2019-02-22T00:10:34.671Z,185.60
2019-02-22T00:11:34.661Z,312.70
2019-02-22T00:12:34.664Z,449.50
2019-02-22T00:13:34.648Z,280.10
2019-02-22T00:14:34.626Z,1102.60
2019-02-22T00:15:36.276Z,553.90
2019-02-22T00:16:34.605Z,316.80
2019-02-22T00:17:34.625Z,472.00
2019-02-22T00:18:34.582Z,444.60
2019-02-22T00:19:34.575Z,305.00
2019-02-22T00:20:34.559Z,324.90
2019-02-22T00:21:34.549Z,244.00
2019-02-22T00:22:34.568Z,304.10
2019-02-22T00:23:34.524Z,224.90
2019-02-22T00:24:34.512Z,473.00
2019-02-22T00:25:34.508Z,254.30
2019-02-22T00:26:34.489Z,259.10
2019-02-22T00:27:34.487Z,319.10
2019-02-22T00:28:34.484Z,289.10
2019-02-22T00:29:34.455Z,261.10
2019-02-22T00:30:34.447Z,238.30
2019-02-22T00:31:34.444Z,237.00
2019-02-22T00:32:34.423Z,237.30
2019-02-22T00:33:34.426Z,240.40
2019-02-22T00:34:34.540Z,225.80
2019-02-22T00:35:34.539Z,221.50
2019-02-22T00:36:34.528Z,207.20
2019-02-22T00:37:34.371Z,196.50
2019-02-22T00:38:34.367Z,202.20
2019-02-22T00:39:34.341Z,195.50
2019-02-22T00:40:34.329Z,189.10
2019-02-22T00:41:34.318Z,185.10
2019-02-22T00:42:34.307Z,184.80
2019-02-22T00:43:34.322Z,178.50
2019-02-22T00:44:34.286Z,180.50
2019-02-22T00:45:34.273Z,175.10
2019-02-22T00:46:34.264Z,165.10
2019-02-22T00:47:34.251Z,170.10
2019-02-22T00:48:34.257Z,153.80
2019-02-22T00:49:34.240Z,153.50
2019-02-22T00:50:34.240Z,158.90
2019-02-22T00:51:34.207Z,155.40
2019-02-22T00:52:34.196Z,147.90
2019-02-22T00:53:34.199Z,146.80
2019-02-22T00:54:34.170Z,138.50
2019-02-22T00:55:34.184Z,141.90
2019-02-22T00:56:34.147Z,138.90
2019-02-22T00:57:34.137Z,130.60
2019-02-22T00:58:34.141Z,122.50
2019-02-22T00:59:34.115Z,131.10
2019-02-22T01:00:34.103Z,125.60
2019-02-22T01:01:34.099Z,116.70
2019-02-22T01:02:34.081Z,109.10
2019-02-22T01:03:34.084Z,117.90
2019-02-22T01:04:34.055Z,109.80
2019-02-22T01:05:34.045Z,106.80
2019-02-22T01:06:34.034Z,103.50
2019-02-22T01:07:34.034Z,108.30
2019-02-22T01:08:34.028Z,92.10
2019-02-22T01:09:33.999Z,98.30
2019-02-22T01:10:33.988Z,91.70
2019-02-22T01:11:33.977Z,91.90
2019-02-22T01:12:33.964Z,90.30
2019-02-22T01:13:33.976Z,84.90
2019-02-22T01:14:33.942Z,82.70
2019-02-22T01:15:33.930Z,78.70
2019-02-22T01:16:33.919Z,73.90
2019-02-22T01:17:33.911Z,73.30
2019-02-22T01:18:33.914Z,73.20
2019-02-22T01:19:33.903Z,68.10
2019-02-22T01:20:33.873Z,67.70
2019-02-22T01:21:33.861Z,64.50
2019-02-22T01:22:33.855Z,58.00
2019-02-22T01:23:33.855Z,58.80
2019-02-22T01:24:33.829Z,58.40
2019-02-22T01:25:33.828Z,57.40
2019-02-22T01:26:33.805Z,56.90
2019-02-22T01:27:33.793Z,53.40
2019-02-22T01:28:33.798Z,50.50
2019-02-22T01:29:33.770Z,49.50
2019-02-22T01:30:33.769Z,45.80
2019-02-22T01:31:33.769Z,47.20
2019-02-22T01:32:33.735Z,42.80
2019-02-22T01:33:33.739Z,44.90
2019-02-22T01:34:33.719Z,42.40
2019-02-22T01:35:33.701Z,39.30
2019-02-22T01:36:33.692Z,38.80
2019-02-22T01:37:33.688Z,41.60
2019-02-22T01:38:33.682Z,35.90
2019-02-22T01:39:33.658Z,37.90
2019-02-22T01:40:43.093Z,37.90
2019-02-22T01:41:34.636Z,34.70
2019-02-22T01:42:33.626Z,34.10
2019-02-22T01:43:33.622Z,30.20
2019-02-22T01:44:33.629Z,31.20
2019-02-22T01:45:33.592Z,30.40
2019-02-22T01:46:33.584Z,29.20
2019-02-22T01:47:33.570Z,30.10
2019-02-22T01:48:33.555Z,28.00
2019-02-22T01:49:33.570Z,28.80
2019-02-22T01:50:33.534Z,25.80
2019-02-22T01:51:33.522Z,27.60
2019-02-22T01:52:33.510Z,24.00
2019-02-22T01:53:33.502Z,27.50
2019-02-22T01:54:33.505Z,25.80
2019-02-22T01:55:33.484Z,25.00
2019-02-22T01:56:33.466Z,25.10
2019-02-22T01:57:33.465Z,24.90
2019-02-22T01:58:33.443Z,22.70
2019-02-22T01:59:33.448Z,23.50
2019-02-22T02:00:33.422Z,21.50
2019-02-22T02:01:33.416Z,20.70
2019-02-22T02:02:33.400Z,19.20
2019-02-22T02:03:33.387Z,20.60
2019-02-22T02:04:33.392Z,18.70
2019-02-22T02:05:33.365Z,21.60
2019-02-22T02:06:33.364Z,19.70
2019-02-22T02:07:33.355Z,17.80
2019-02-22T02:08:33.333Z,18.30
2019-02-22T02:09:33.339Z,18.10
2019-02-22T02:10:33.314Z,18.00
2019-02-22T02:11:33.300Z,17.00
2019-02-22T02:12:33.289Z,18.70
2019-02-22T02:13:33.285Z,17.10
2019-02-22T02:14:33.281Z,18.90
2019-02-22T02:15:33.255Z,15.90
2019-02-22T02:16:33.244Z,16.20
2019-02-22T02:17:33.233Z,15.50
2019-02-22T02:18:33.227Z,15.30
2019-02-22T02:19:33.234Z,13.90
2019-02-22T02:20:33.205Z,14.50
2019-02-22T02:21:33.196Z,13.90
2019-02-22T02:22:33.179Z,12.80
2019-02-22T02:23:33.166Z,16.10
2019-02-22T02:24:33.173Z,15.40
2019-02-22T02:25:33.151Z,15.40
2019-02-22T02:26:33.136Z,15.30
2019-02-22T02:27:33.123Z,13.90
2019-02-22T02:28:33.112Z,13.80
2019-02-22T02:29:33.113Z,13.60
2019-02-22T02:30:33.088Z,14.20
2019-02-22T02:31:33.087Z,13.60
2019-02-22T02:32:33.066Z,13.50
2019-02-22T02:33:33.057Z,13.90
2019-02-22T02:34:33.063Z,15.30
2019-02-22T02:35:33.037Z,13.80
2019-02-22T02:36:33.025Z,12.30
2019-02-22T02:37:33.016Z,13.40
2019-02-22T02:38:32.999Z,13.30
2019-02-22T02:39:33.004Z,13.70
2019-02-22T02:40:32.980Z,11.90
2019-02-22T02:41:32.966Z,12.60
2019-02-22T02:42:32.957Z,11.40
2019-02-22T02:43:32.956Z,11.80
2019-02-22T02:44:32.956Z,13.60
2019-02-22T02:45:32.924Z,11.80
2019-02-22T02:46:32.920Z,13.00
2019-02-22T02:47:32.909Z,11.10
2019-02-22T02:48:32.892Z,11.70
2019-02-22T02:49:32.890Z,11.60
2019-02-22T02:50:32.887Z,14.10
2019-02-22T02:51:32.861Z,13.00
2019-02-22T02:52:32.851Z,12.10
2019-02-22T02:53:32.835Z,12.00
2019-02-22T02:54:32.828Z,13.90
2019-02-22T02:55:32.837Z,12.50
2019-02-22T02:56:32.801Z,12.80
2019-02-22T02:57:32.799Z,13.10
2019-02-22T02:58:32.787Z,11.70
2019-02-22T02:59:32.768Z,10.20
2019-02-22T03:00:32.774Z,9.80
2019-02-22T03:01:32.753Z,12.70
2019-02-22T03:02:32.739Z,13.80
2019-02-22T03:03:32.725Z,12.30
2019-02-22T03:04:32.713Z,13.60
2019-02-22T03:05:32.717Z,12.90
2019-02-22T03:06:32.692Z,11.70
2019-02-22T03:07:32.688Z,11.10
2019-02-22T03:08:32.669Z,12.30
2019-02-22T03:09:32.665Z,10.80
2019-02-22T03:10:32.664Z,10.70
2019-02-22T03:11:32.636Z,11.10
2019-02-22T03:12:32.625Z,13.20
2019-02-22T03:13:32.621Z,12.00
2019-02-22T03:14:32.604Z,10.00
2019-02-22T03:15:32.608Z,11.50
2019-02-22T03:16:32.583Z,11.00
2019-02-22T03:17:32.571Z,12.30
2019-02-22T03:18:32.559Z,10.60
2019-02-22T03:19:32.555Z,10.70
2019-02-22T03:20:32.558Z,12.10
2019-02-22T03:21:32.533Z,11.90
2019-02-22T03:22:32.522Z,13.30
2019-02-22T03:23:32.504Z,13.70
2019-02-22T03:24:32.503Z,10.90
2019-02-22T03:25:32.511Z,11.40
2019-02-22T03:26:32.474Z,12.30
2019-02-22T03:27:32.461Z,9.80
2019-02-22T03:28:32.451Z,11.20
2019-02-22T03:29:32.439Z,10.80
2019-02-22T03:30:32.454Z,10.70
2019-02-22T03:31:32.427Z,9.60
2019-02-22T03:32:32.414Z,11.20
2019-02-22T03:33:32.396Z,9.60
2019-02-22T03:34:32.385Z,10.70
2019-02-22T03:35:32.388Z,10.90
2019-02-22T03:36:32.364Z,10.70
2019-02-22T03:37:32.361Z,9.90
2019-02-22T03:38:32.341Z,11.20
2019-02-22T03:39:32.332Z,10.50
2019-02-22T03:40:32.350Z,9.80
2019-02-22T03:41:33.520Z,13.10
2019-02-22T03:42:32.297Z,9.80
2019-02-22T03:43:32.293Z,10.10
2019-02-22T03:44:32.278Z,10.10
2019-02-22T03:45:32.266Z,9.70
2019-02-22T03:46:32.270Z,10.70
2019-02-22T03:47:34.978Z,11.50
2019-02-22T03:48:32.236Z,10.20
2019-02-22T03:49:32.231Z,9.60
2019-02-22T03:50:32.218Z,9.10
2019-02-22T03:51:32.219Z,9.40
2019-02-22T03:52:32.188Z,9.80
2019-02-22T03:53:32.178Z,9.70
2019-02-22T03:54:32.167Z,10.30
2019-02-22T03:55:32.170Z,9.30
2019-02-22T03:56:32.161Z,11.30
2019-02-22T03:57:32.139Z,10.10
2019-02-22T03:58:32.122Z,9.10
2019-02-22T03:59:32.176Z,10.40
2019-02-22T04:00:32.104Z,9.80
2019-02-22T04:01:32.121Z,8.90
2019-02-22T04:02:32.086Z,9.10
2019-02-22T04:03:32.069Z,9.80
2019-02-22T04:04:32.062Z,9.80
2019-02-22T04:05:32.053Z,11.00
2019-02-22T04:06:32.050Z,9.20
2019-02-22T04:07:32.036Z,9.70
2019-02-22T04:08:32.015Z,9.70
2019-02-22T04:09:32.003Z,8.80
2019-02-22T04:10:31.995Z,9.70
2019-02-22T04:11:44.643Z,10.40
2019-02-22T04:12:32.976Z,9.20
2019-02-22T04:13:31.970Z,8.60
2019-02-22T04:14:31.949Z,8.60
2019-02-22T04:15:31.939Z,9.60
2019-02-22T04:16:31.942Z,10.50
2019-02-22T04:17:31.915Z,9.40
2019-02-22T04:18:31.903Z,8.90
2019-02-22T04:19:31.904Z,8.30
2019-02-22T04:20:31.884Z,8.60
2019-02-22T04:21:31.887Z,9.80
2019-02-22T04:22:31.864Z,10.10
2019-02-22T04:23:31.850Z,8.70
2019-02-22T04:24:31.840Z,9.00
2019-02-22T04:25:31.838Z,10.90
2019-02-22T04:26:31.835Z,10.50
2019-02-22T04:27:31.809Z,10.40
2019-02-22T04:28:31.796Z,10.60
2019-02-22T04:29:31.821Z,10.30
2019-02-22T04:30:31.774Z,7.60
2019-02-22T04:31:31.778Z,9.30
2019-02-22T04:32:31.761Z,9.60
2019-02-22T04:33:31.744Z,10.30
2019-02-22T04:34:31.729Z,10.50
2019-02-22T04:35:31.720Z,9.30
2019-02-22T04:36:31.728Z,9.80
2019-02-22T04:37:31.698Z,10.80
2019-02-22T04:38:31.692Z,10.70
2019-02-22T04:39:31.675Z,11.40
2019-02-22T04:40:31.663Z,8.00
2019-02-22T04:41:31.670Z,12.40
2019-02-22T04:42:31.644Z,11.00
2019-02-22T04:43:31.633Z,8.40
2019-02-22T04:44:31.632Z,9.80
2019-02-22T04:45:31.612Z,8.70
2019-02-22T04:46:31.616Z,9.90
2019-02-22T04:47:31.586Z,9.50
2019-02-22T04:48:31.575Z,8.00
2019-02-22T04:49:31.565Z,8.90
2019-02-22T04:50:31.594Z,8.60
2019-02-22T04:51:31.559Z,8.00
2019-02-22T04:52:31.530Z,8.90
2019-02-22T04:53:31.524Z,7.70
2019-02-22T04:54:31.513Z,10.00
2019-02-22T04:55:31.499Z,10.70
2019-02-22T04:56:31.535Z,10.30
2019-02-22T04:57:31.478Z,8.50
2019-02-22T04:58:31.466Z,9.00
2019-02-22T04:59:31.456Z,8.00
2019-02-22T05:00:31.446Z,9.20
2019-02-22T05:01:31.434Z,9.80
2019-02-22T05:02:31.442Z,14.00
2019-02-22T05:03:31.412Z,8.80
2019-02-22T05:04:31.401Z,9.20
2019-02-22T05:05:31.388Z,11.00
2019-02-22T05:06:31.383Z,11.30
2019-02-22T05:07:31.383Z,10.70
2019-02-22T05:08:31.368Z,11.50
2019-02-22T05:09:31.347Z,9.00
2019-02-22T05:10:31.335Z,12.00
2019-02-22T05:11:31.327Z,12.40
2019-02-22T05:12:31.327Z,8.40
2019-02-22T05:13:31.306Z,9.50
2019-02-22T05:14:31.301Z,11.60
2019-02-22T05:15:31.281Z,11.80
2019-02-22T05:16:31.268Z,9.40
2019-02-22T05:17:31.271Z,11.10
2019-02-22T05:18:31.246Z,9.40
2019-02-22T05:19:31.234Z,9.30
2019-02-22T05:20:31.276Z,9.90
2019-02-22T05:21:31.211Z,12.40
2019-02-22T05:22:31.217Z,10.40
2019-02-22T05:23:31.190Z,9.90
2019-02-22T05:24:31.178Z,8.70
2019-02-22T05:25:31.192Z,11.30
2019-02-22T05:26:31.164Z,8.70
2019-02-22T05:27:31.161Z,11.20
2019-02-22T05:28:31.135Z,8.90
2019-02-22T05:29:31.123Z,11.20
2019-02-22T05:30:31.112Z,10.20
2019-02-22T05:31:31.103Z,10.50
2019-02-22T05:32:31.120Z,11.10
2019-02-22T05:33:31.078Z,11.70
2019-02-22T05:34:31.067Z,9.90
2019-02-22T05:35:31.059Z,10.90
2019-02-22T05:36:31.055Z,9.70
2019-02-22T05:37:31.051Z,11.10
2019-02-22T05:38:31.031Z,11.20
2019-02-22T05:39:31.013Z,9.90
2019-02-22T05:40:31.003Z,9.00
2019-02-22T05:41:31.019Z,13.70
2019-02-22T05:42:31.010Z,12.80
2019-02-22T05:43:30.973Z,8.60
2019-02-22T05:44:30.965Z,12.80
2019-02-22T05:45:30.971Z,12.80
2019-02-22T05:46:30.940Z,10.10
2019-02-22T05:47:30.944Z,13.50
2019-02-22T05:48:30.925Z,11.20
2019-02-22T05:49:30.908Z,10.00
2019-02-22T05:50:30.902Z,13.40
2019-02-22T05:51:30.881Z,11.20
2019-02-22T05:52:30.887Z,10.90
2019-02-22T05:53:30.861Z,12.50
2019-02-22T05:54:30.854Z,9.90
2019-02-22T05:55:30.839Z,9.20
2019-02-22T05:56:30.834Z,9.90
2019-02-22T05:57:30.832Z,10.00
2019-02-22T05:58:30.811Z,9.50
2019-02-22T05:59:30.796Z,10.50
2019-02-22T06:00:30.871Z,10.70
2019-02-22T06:01:30.775Z,10.20
2019-02-22T06:02:33.579Z,12.00
2019-02-22T06:03:30.752Z,12.80
2019-02-22T06:04:30.788Z,10.70
2019-02-22T06:05:30.732Z,12.00
2019-02-22T06:06:30.723Z,11.70
2019-02-22T06:07:30.722Z,10.80
2019-02-22T06:08:30.705Z,10.90
2019-02-22T06:09:30.685Z,11.80
2019-02-22T06:10:30.673Z,10.90
2019-02-22T06:11:30.676Z,9.90
2019-02-22T06:12:34.448Z,11.10
2019-02-22T06:13:30.640Z,16.40
2019-02-22T06:14:30.640Z,13.50
2019-02-22T06:15:31.513Z,15.60
2019-02-22T06:16:30.607Z,10.80
2019-02-22T06:17:30.613Z,13.00
2019-02-22T06:18:30.586Z,17.30
2019-02-22T06:19:30.574Z,15.10
2019-02-22T06:20:30.571Z,10.30
2019-02-22T06:21:30.555Z,12.20
2019-02-22T06:22:30.558Z,13.70
2019-02-22T06:23:30.573Z,12.00
2019-02-22T06:24:30.524Z,11.40
2019-02-22T06:25:30.507Z,11.10
2019-02-22T06:26:30.599Z,12.50
2019-02-22T06:27:30.524Z,11.00
2019-02-22T06:28:30.473Z,12.10
2019-02-22T06:29:30.462Z,10.30
2019-02-22T06:30:30.451Z,11.10
2019-02-22T06:31:30.512Z,9.80
2019-02-22T06:32:30.482Z,10.20
2019-02-22T06:33:30.452Z,11.40
2019-02-22T06:34:30.422Z,11.80
2019-02-22T06:35:30.425Z,9.90
2019-02-22T06:36:30.390Z,11.10
2019-02-22T06:37:30.376Z,8.60
2019-02-22T06:38:30.393Z,11.50
2019-02-22T06:39:30.355Z,8.70
2019-02-22T06:40:30.366Z,10.70
2019-02-22T06:41:30.334Z,11.60
2019-02-22T06:42:30.327Z,9.50
2019-02-22T06:43:30.360Z,11.20
2019-02-22T06:44:30.312Z,10.50
2019-02-22T06:45:30.290Z,8.70
2019-02-22T06:46:30.278Z,11.50
2019-02-22T06:47:30.268Z,10.30
2019-02-22T06:48:30.270Z,12.50
2019-02-22T06:49:30.245Z,12.00
2019-02-22T06:50:33.785Z,13.20
2019-02-22T06:51:30.223Z,12.30
2019-02-22T06:52:30.209Z,9.50
2019-02-22T06:53:30.212Z,10.10
2019-02-22T06:54:30.190Z,10.70
2019-02-22T06:55:30.174Z,9.00
2019-02-22T06:56:30.175Z,9.80
2019-02-22T06:57:30.154Z,8.90
2019-02-22T06:58:30.157Z,11.30
2019-02-22T06:59:30.130Z,8.10
2019-02-22T07:00:30.122Z,9.60
2019-02-22T07:01:30.109Z,9.10
2019-02-22T07:02:30.104Z,7.40
2019-02-22T07:03:30.102Z,8.50
2019-02-22T07:04:30.077Z,7.80
2019-02-22T07:05:30.068Z,8.50
2019-02-22T07:06:30.057Z,9.10
2019-02-22T07:07:30.041Z,8.70
2019-02-22T07:08:30.064Z,9.20
2019-02-22T07:09:30.020Z,7.30
2019-02-22T07:10:30.009Z,8.00
2019-02-22T07:11:29.999Z,8.60
2019-02-22T07:12:29.985Z,7.00
2019-02-22T07:13:30.004Z,8.10
2019-02-22T07:14:29.971Z,8.70
2019-02-22T07:15:29.951Z,7.90
2019-02-22T07:16:29.943Z,8.40
2019-02-22T07:17:29.929Z,5.60
2019-02-22T07:18:29.922Z,10.90
2019-02-22T07:19:29.920Z,8.60
2019-02-22T07:20:29.903Z,7.10
2019-02-22T07:21:43.734Z,6.90
2019-02-22T07:22:30.871Z,9.60
2019-02-22T07:23:29.859Z,9.50
2019-02-22T07:24:29.866Z,6.70
2019-02-22T07:25:29.838Z,9.10
2019-02-22T07:26:29.835Z,9.50
2019-02-22T07:27:29.814Z,7.60
2019-02-22T07:28:29.804Z,7.30
2019-02-22T07:29:29.812Z,7.50
2019-02-22T07:30:29.785Z,6.30
2019-02-22T07:31:29.769Z,8.70
2019-02-22T07:32:29.766Z,9.40
2019-02-22T07:33:29.745Z,6.40
2019-02-22T07:34:29.762Z,9.20
2019-02-22T07:35:29.729Z,13.00
2019-02-22T07:36:29.737Z,15.90
2019-02-22T07:37:29.703Z,11.90
2019-02-22T07:38:29.708Z,14.80
2019-02-22T07:39:29.696Z,23.10
2019-02-22T07:40:29.672Z,12.50
2019-02-22T07:41:29.658Z,10.40
2019-02-22T07:42:29.645Z,16.20
2019-02-22T07:43:29.633Z,9.60
2019-02-22T07:44:29.644Z,10.20
2019-02-22T07:45:29.615Z,8.90
2019-02-22T07:46:29.602Z,10.10
2019-02-22T07:47:29.589Z,10.60
2019-02-22T07:48:29.579Z,13.20
2019-02-22T07:49:29.588Z,11.00
2019-02-22T07:50:29.566Z,10.60
2019-02-22T07:51:29.543Z,8.20
2019-02-22T07:52:29.534Z,7.00
2019-02-22T07:53:29.525Z,7.90
2019-02-22T07:54:29.524Z,10.40
2019-02-22T07:55:29.497Z,11.10
2019-02-22T07:56:29.491Z,7.30
2019-02-22T07:57:29.477Z,9.90
2019-02-22T07:58:29.462Z,8.50
2019-02-22T07:59:29.466Z,10.00
2019-02-22T08:00:29.439Z,8.80
2019-02-22T08:01:29.430Z,8.20
2019-02-22T08:02:29.423Z,8.10
2019-02-22T08:03:29.409Z,7.70
2019-02-22T08:04:29.411Z,7.10
2019-02-22T08:05:29.383Z,7.70
2019-02-22T08:06:29.387Z,9.40
2019-02-22T08:07:29.361Z,10.00
2019-02-22T08:08:29.360Z,7.10
2019-02-22T08:09:29.352Z,5.80
2019-02-22T08:10:29.326Z,9.20
2019-02-22T08:11:29.315Z,7.20
2019-02-22T08:12:29.302Z,7.70
2019-02-22T08:13:29.294Z,8.40
2019-02-22T08:14:29.308Z,7.40
2019-02-22T08:15:29.270Z,7.90
2019-02-22T08:16:29.258Z,6.10
2019-02-22T08:17:29.246Z,6.50
2019-02-22T08:18:29.235Z,7.30
2019-02-22T08:19:29.242Z,6.80
2019-02-22T08:20:29.220Z,6.30
2019-02-22T08:21:29.201Z,6.60
2019-02-22T08:22:29.190Z,7.40
2019-02-22T08:23:29.181Z,6.20
2019-02-22T08:24:29.196Z,7.40
2019-02-22T08:25:29.157Z,5.50
2019-02-22T08:26:29.154Z,7.20
2019-02-22T08:27:29.136Z,6.60
2019-02-22T08:28:29.124Z,5.80
2019-02-22T08:29:29.112Z,7.70
2019-02-22T08:30:29.116Z,6.50
2019-02-22T08:31:29.094Z,6.60
2019-02-22T08:32:29.085Z,5.70
2019-02-22T08:33:29.069Z,7.80
2019-02-22T08:34:29.057Z,7.60
2019-02-22T08:35:29.061Z,7.30
2019-02-22T08:36:29.035Z,5.00
2019-02-22T08:37:29.025Z,7.40
2019-02-22T08:38:29.060Z,6.30
2019-02-22T08:39:29.001Z,6.80
2019-02-22T08:40:29.007Z,6.50
2019-02-22T08:41:28.979Z,6.50
2019-02-22T08:42:28.968Z,6.10
2019-02-22T08:43:31.838Z,5.40
2019-02-22T08:44:28.958Z,5.90
2019-02-22T08:45:28.949Z,6.00
2019-02-22T08:46:28.923Z,6.20
2019-02-22T08:47:28.927Z,6.00
2019-02-22T08:48:28.900Z,6.20
2019-02-22T08:49:28.889Z,5.40
2019-02-22T08:50:28.903Z,7.00
2019-02-22T08:51:28.868Z,4.90
2019-02-22T08:52:28.857Z,5.10
2019-02-22T08:53:28.850Z,4.40
2019-02-22T08:54:28.835Z,5.20
2019-02-22T08:55:28.838Z,5.80
2019-02-22T08:56:28.821Z,4.70
2019-02-22T08:57:28.802Z,6.50
2019-02-22T08:58:28.789Z,5.90
2019-02-22T08:59:28.778Z,6.40
2019-02-22T09:00:28.783Z,6.20
2019-02-22T09:01:28.756Z,8.50
2019-02-22T09:02:28.750Z,7.00
2019-02-22T09:03:28.733Z,7.50
2019-02-22T09:04:28.723Z,5.50
2019-02-22T09:05:28.730Z,6.40
2019-02-22T09:06:28.700Z,5.60
2019-02-22T09:07:28.692Z,5.70
2019-02-22T09:08:28.685Z,5.40
2019-02-22T09:09:28.667Z,6.60
2019-02-22T09:10:28.671Z,5.10
2019-02-22T09:11:28.647Z,5.50
2019-02-22T09:12:28.632Z,6.10
2019-02-22T09:13:28.625Z,5.50
2019-02-22T09:14:28.619Z,5.80
2019-02-22T09:15:28.615Z,5.40
2019-02-22T09:16:28.587Z,5.10
2019-02-22T09:17:28.580Z,5.30
2019-02-22T09:18:28.569Z,5.80
2019-02-22T09:19:28.566Z,6.20
2019-02-22T09:20:28.587Z,4.90
2019-02-22T09:21:28.533Z,6.40
2019-02-22T09:22:28.522Z,5.40
2019-02-22T09:23:28.511Z,4.60
2019-02-22T09:24:28.500Z,5.30
2019-02-22T09:25:28.506Z,5.90
2019-02-22T09:26:28.482Z,6.30
2019-02-22T09:27:28.467Z,7.80
2019-02-22T09:28:28.455Z,7.40
2019-02-22T09:29:28.445Z,5.70
2019-02-22T09:30:28.450Z,7.30
2019-02-22T09:31:28.422Z,6.10
2019-02-22T09:32:28.436Z,6.40
2019-02-22T09:33:28.399Z,6.40
2019-02-22T09:34:28.389Z,7.10
2019-02-22T09:35:28.393Z,6.80
2019-02-22T09:36:28.370Z,6.80
2019-02-22T09:37:28.355Z,9.40
2019-02-22T09:38:28.349Z,6.40
2019-02-22T09:39:28.335Z,7.70
2019-02-22T09:40:28.337Z,6.80
2019-02-22T09:41:28.313Z,5.80
2019-02-22T09:42:28.300Z,6.50
2019-02-22T09:43:28.289Z,5.90
2019-02-22T09:44:28.283Z,6.80
2019-02-22T09:45:28.290Z,6.40
2019-02-22T09:46:28.257Z,7.10
2019-02-22T09:47:28.251Z,6.60
2019-02-22T09:48:28.234Z,8.20
2019-02-22T09:49:28.220Z,8.90
2019-02-22T09:50:28.229Z,9.50
2019-02-22T09:51:28.215Z,10.50
2019-02-22T09:52:28.187Z,15.30
2019-02-22T09:53:28.176Z,17.70
2019-02-22T09:54:28.169Z,17.40
2019-02-22T09:55:28.155Z,24.30
2019-02-22T09:56:28.168Z,31.30
2019-02-22T09:57:28.131Z,33.50
2019-02-22T09:58:28.122Z,39.60
2019-02-22T09:59:28.110Z,33.90
2019-02-22T10:00:28.099Z,44.20
2019-02-22T10:01:28.102Z,42.20
2019-02-22T10:02:28.080Z,47.50
2019-02-22T10:03:28.067Z,50.30
2019-02-22T10:04:28.183Z,44.60
2019-02-22T10:05:28.042Z,45.20
2019-02-22T10:06:28.052Z,44.00
2019-02-22T10:07:28.021Z,43.90
2019-02-22T10:08:28.016Z,40.60
2019-02-22T10:09:27.998Z,44.20
2019-02-22T10:10:27.988Z,44.20
2019-02-22T10:11:27.992Z,42.40
2019-02-22T10:12:27.967Z,41.40
2019-02-22T10:13:27.954Z,41.40
2019-02-22T10:14:28.637Z,42.90
2019-02-22T10:15:27.933Z,42.10
2019-02-22T10:16:27.938Z,40.20
2019-02-22T10:17:27.932Z,42.80
2019-02-22T10:18:27.902Z,40.40
2019-02-22T10:19:27.888Z,40.40
2019-02-22T10:20:27.885Z,38.20
2019-02-22T10:21:27.881Z,39.90
2019-02-22T10:22:27.856Z,37.80
2019-02-22T10:23:27.843Z,37.50
2019-02-22T10:24:27.832Z,36.40
2019-02-22T10:25:27.832Z,35.30
2019-02-22T10:26:27.832Z,35.60
2019-02-22T10:27:27.799Z,34.20
2019-02-22T10:28:27.791Z,34.70
2019-02-22T10:29:27.774Z,35.20
2019-02-22T10:30:27.764Z,35.90
2019-02-22T10:31:27.768Z,35.90
2019-02-22T10:32:27.751Z,34.10
2019-02-22T10:33:36.173Z,34.00
2019-02-22T10:34:28.718Z,35.00
2019-02-22T10:35:27.709Z,40.50
2019-02-22T10:36:27.714Z,56.20
2019-02-22T10:37:27.686Z,44.40
2019-02-22T10:38:27.682Z,45.40
2019-02-22T10:39:27.664Z,43.90
2019-02-22T10:40:27.661Z,42.40
2019-02-22T10:41:27.656Z,41.50
2019-02-22T10:42:27.630Z,43.70
2019-02-22T10:43:27.620Z,37.90
2019-02-22T10:44:27.619Z,38.70
2019-02-22T10:45:27.597Z,38.90
2019-02-22T10:46:27.606Z,39.00
2019-02-22T10:47:27.574Z,38.40
2019-02-22T10:48:27.564Z,35.30
2019-02-22T10:49:27.554Z,37.80
2019-02-22T10:50:27.552Z,38.00
2019-02-22T10:51:27.546Z,36.80
2019-02-22T10:52:27.521Z,35.40
2019-02-22T10:53:27.510Z,33.90
2019-02-22T10:54:27.497Z,36.90
2019-02-22T10:55:27.486Z,43.90
2019-02-22T10:56:28.360Z,40.70
2019-02-22T10:57:27.478Z,45.70
2019-02-22T10:58:27.453Z,49.40
2019-02-22T10:59:27.441Z,44.40
2019-02-22T11:00:27.429Z,41.00
2019-02-22T11:01:27.453Z,39.30
2019-02-22T11:02:27.424Z,40.50
2019-02-22T11:03:27.403Z,39.60
2019-02-22T11:04:27.389Z,40.50
2019-02-22T11:05:27.373Z,38.40
2019-02-22T11:06:27.378Z,38.90
2019-02-22T11:07:27.351Z,39.20
2019-02-22T11:08:27.346Z,37.10
2019-02-22T11:09:27.331Z,36.20
2019-02-22T11:10:27.319Z,36.10
2019-02-22T11:11:27.324Z,37.00
2019-02-22T11:12:27.297Z,36.20
2019-02-22T11:13:27.286Z,37.60
2019-02-22T11:14:29.380Z,37.40
2019-02-22T11:15:27.263Z,37.70
2019-02-22T11:16:27.270Z,35.40
2019-02-22T11:17:27.243Z,35.60
2019-02-22T11:18:27.242Z,34.60
2019-02-22T11:19:27.219Z,38.90
2019-02-22T11:20:27.216Z,36.40
2019-02-22T11:21:27.218Z,33.90
2019-02-22T11:22:27.190Z,39.60
2019-02-22T11:23:27.179Z,39.90
2019-02-22T11:24:27.179Z,46.10
2019-02-22T11:25:27.153Z,51.10
2019-02-22T11:26:27.166Z,58.70
2019-02-22T11:27:27.131Z,60.50
2019-02-22T11:28:27.122Z,63.70
2019-02-22T11:29:27.111Z,63.10
2019-02-22T11:30:27.098Z,66.70
2019-02-22T11:31:27.099Z,63.70
2019-02-22T11:32:27.203Z,56.90
2019-02-22T11:33:27.063Z,56.50
2019-02-22T11:34:27.053Z,61.80
2019-02-22T11:35:27.113Z,64.80
2019-02-22T11:36:27.058Z,64.60
2019-02-22T11:37:27.026Z,64.80
2019-02-22T11:38:27.022Z,67.00
2019-02-22T11:39:26.996Z,62.60
2019-02-22T11:40:26.988Z,64.50
2019-02-22T11:41:26.977Z,61.70
2019-02-22T11:42:26.977Z,63.50
2019-02-22T11:43:26.952Z,64.00
2019-02-22T11:44:26.945Z,62.80
2019-02-22T11:45:26.932Z,63.80
2019-02-22T11:46:26.920Z,65.50
2019-02-22T11:47:26.938Z,63.30
2019-02-22T11:48:26.898Z,64.50
2019-02-22T11:49:26.887Z,64.30
2019-02-22T11:50:26.885Z,60.20
2019-02-22T11:51:26.868Z,65.00
2019-02-22T11:52:26.879Z,67.50
2019-02-22T11:53:26.846Z,63.90
2019-02-22T11:54:26.837Z,63.10
2019-02-22T11:55:26.823Z,66.40
2019-02-22T11:56:26.818Z,64.20
2019-02-22T11:57:26.820Z,64.00
2019-02-22T11:58:26.795Z,62.90
2019-02-22T11:59:26.780Z,59.30
2019-02-22T12:00:26.779Z,61.10
2019-02-22T12:01:26.759Z,63.70
2019-02-22T12:02:26.771Z,61.30
2019-02-22T12:03:26.738Z,57.40
2019-02-22T12:04:26.726Z,62.00
2019-02-22T12:05:26.714Z,60.40
2019-02-22T12:06:26.703Z,56.90
2019-02-22T12:07:26.709Z,61.80
2019-02-22T12:08:26.695Z,61.40
2019-02-22T12:09:26.672Z,60.90
2019-02-22T12:10:26.670Z,60.40
2019-02-22T12:11:26.650Z,56.80
2019-02-22T12:12:26.655Z,56.50
2019-02-22T12:13:26.628Z,55.50
2019-02-22T12:14:26.624Z,55.80
2019-02-22T12:15:26.605Z,56.60
2019-02-22T12:16:26.595Z,56.80
2019-02-22T12:17:26.599Z,54.60
2019-02-22T12:18:26.573Z,52.50
2019-02-22T12:19:26.561Z,49.70
2019-02-22T12:20:26.557Z,53.70
2019-02-22T12:21:26.539Z,55.40
2019-02-22T12:22:26.588Z,52.50
2019-02-22T12:23:26.540Z,49.90
2019-02-22T12:24:26.505Z,49.80
2019-02-22T12:25:26.493Z,50.50
2019-02-22T12:26:26.494Z,48.90
2019-02-22T12:27:26.489Z,50.60
2019-02-22T12:28:26.459Z,53.80
2019-02-22T12:29:26.450Z,51.00
2019-02-22T12:30:26.445Z,51.40
2019-02-22T12:31:26.427Z,51.20
2019-02-22T12:32:26.440Z,49.60
2019-02-22T12:33:26.404Z,54.50
2019-02-22T12:34:26.394Z,50.10
2019-02-22T12:35:26.382Z,49.00
2019-02-22T12:36:26.373Z,48.10
2019-02-22T12:37:26.378Z,50.60
2019-02-22T12:38:28.180Z,50.80
2019-02-22T12:39:26.341Z,47.00
2019-02-22T12:40:26.404Z,46.80
2019-02-22T12:41:26.315Z,50.20
2019-02-22T12:42:26.318Z,48.50
2019-02-22T12:43:26.341Z,46.40
2019-02-22T12:44:26.286Z,46.20
2019-02-22T12:45:26.274Z,44.70
2019-02-22T12:46:26.268Z,37.10
2019-02-22T12:47:26.263Z,32.00
2019-02-22T12:48:26.238Z,33.50
2019-02-22T12:49:26.229Z,31.30
2019-02-22T12:50:26.216Z,33.60
2019-02-22T12:51:26.205Z,40.50
2019-02-22T12:52:26.214Z,36.00
2019-02-22T12:53:26.185Z,37.40
2019-02-22T12:54:26.172Z,40.80
2019-02-22T12:55:26.162Z,38.50
2019-02-22T12:56:55.787Z,41.50
2019-02-22T12:57:27.155Z,37.90
2019-02-22T12:58:26.127Z,38.70